CSCL Autumn — VRNA7 — position and weather

sailwx.info

Track history (hours):
 
Tides and Currents Weather Stations Pressure Air Temp Water Temp Dewpoint Dewpoint Depression Visibility Wind Speed Wind Dir Waves Ship Positions

CSCL Autumn

Last reported at 2018-May-24 17:10 UTC. Time now 2018-May-26 03:54 UTC.
Position N 32°23' E 126°23'.

Length 335 m; draft 14.3 m.

Type: Ship (hazmat cat A). MMSI: 477117900.

Date/timePositionNaut miles runAvg speedWind from/ knotsBaromVisibWave heightAir tempDewpointWater temp
2018-May-24 17:10N 32°23' E 126°23'319.3
2018-May-24 17:01N 32°22' E 126°20'2819.5
2018-May-24 15:36N 32°07' E 125°52'219.4
2018-May-24 15:30N 32°06' E 125°50'1119.7
2018-May-24 14:58N 32°00' E 125°40'2919.7
2018-May-24 13:29N 31°45' E 125°10'9219.5
2018-May-24 08:45N 30°56' E 123°39'519.3
2018-May-24 08:30N 30°54' E 123°34'2618.8
2018-May-24 07:09N 30°40' E 123°09'318.5
2018-May-24 06:59N 30°39' E 123°06'1518.5
2018-May-24 06:09N 30°34' E 122°49'318.6
2018-May-24 06:00N 30°34' E 122°46'2318.8
2018-May-24 04:46N 30°33' E 122°19'510.1
2018-May-24 04:18N 30°33' E 122°13'8 0.5
2018-May-23 11:19N 30°36' E 122°05'2 3.9
2018-May-23 10:46N 30°35' E 122°07'714.4
2018-May-23 10:16N 30°33' E 122°15'915.1
2018-May-23 09:41N 30°32' E 122°25'314.9
2018-May-23 09:28N 30°32' E 122°29'716.2
2018-May-23 09:00N 30°31' E 122°38'34711.5
2018-May-22 02:47N 35°60' E 120°26'612.6
2018-May-22 02:17N 36°01' E 120°19'3 8.5
2018-May-22 01:56N 36°02' E 120°15'3 3.1
2018-May-22 01:05N 36°00' E 120°13'0 0.0
2018-May-22 00:47N 36°00' E 120°13'0 0.0
2018-May-22 00:20N 36°00' E 120°13'0 0.0
2018-May-21 23:44N 36°00' E 120°13'0 0.0
2018-May-21 23:29N 36°00' E 120°13'0 0.1
2018-May-21 22:50N 36°00' E 120°13'0 0.1
2018-May-21 22:14N 36°00' E 120°13'0 0.0
2018-May-21 21:56N 36°00' E 120°13'0 0.0
2018-May-21 21:05N 36°00' E 120°13'0 0.0
2018-May-21 20:44N 36°00' E 120°13'0 0.0
2018-May-21 19:53N 36°00' E 120°13'0 0.0
2018-May-21 19:29N 36°00' E 120°13'0 0.0
2018-May-21 18:53N 36°00' E 120°13'0 0.0
2018-May-21 18:20N 36°00' E 120°13'0 0.0
2018-May-21 17:54N 36°00' E 120°13'0 0.0
2018-May-21 17:26N 36°00' E 120°13'0 0.0
2018-May-21 16:53N 36°00' E 120°13'0 0.0
2018-May-21 16:26N 36°00' E 120°13'0 0.0
2018-May-21 15:38N 36°00' E 120°13'0 0.1
2018-May-21 15:12N 36°00' E 120°13'0 0.0
2018-May-21 14:53N 36°00' E 120°13'0 0.0
2018-May-21 14:29N 36°00' E 120°13'0 0.0
2018-May-21 13:57N 36°00' E 120°13'0 0.1
2018-May-21 13:20N 36°00' E 120°13'0 0.1
2018-May-21 12:44N 36°00' E 120°13'0 0.0
2018-May-21 12:27N 36°00' E 120°13'0 0.0
2018-May-21 11:14N 36°00' E 120°13'0 0.0
2018-May-21 10:56N 36°00' E 120°13'0 0.0
2018-May-21 09:59N 36°00' E 120°13'0 0.0
2018-May-21 07:49N 36°00' E 120°13'0 0.0
2018-May-21 06:47N 36°00' E 120°13'0 0.0
2018-May-21 06:29N 36°00' E 120°13'0 0.0
2018-May-21 05:52N 36°00' E 120°13'0 0.1
2018-May-21 05:16N 36°00' E 120°13'0 0.0
2018-May-21 04:52N 36°00' E 120°13'0 0.1
2018-May-21 04:04N 36°00' E 120°13'0 0.1
2018-May-21 03:43N 36°00' E 120°13'0 0.1
2018-May-21 03:26N 36°00' E 120°13'0 0.0
2018-May-21 02:01N 36°00' E 120°13'0 0.0
2018-May-21 01:46N 36°00' E 120°13'0 0.0
2018-May-21 01:25N 36°00' E 120°13'0 0.0
2018-May-21 00:43N 36°00' E 120°13'0 0.0
2018-May-21 00:25N 36°00' E 120°13'0 0.0
2018-May-20 23:08N 36°00' E 120°13'0 0.0
2018-May-20 22:46N 36°00' E 120°13'0 0.1
2018-May-20 22:23N 36°00' E 120°13'0 0.0
2018-May-20 21:46N 36°00' E 120°13'0 0.1
2018-May-20 21:16N 36°00' E 120°13'0 0.0
2018-May-20 20:59N 36°00' E 120°13'0 0.0
2018-May-20 19:17N 36°00' E 120°13'0 0.1
2018-May-20 18:32N 36°00' E 120°13'0 0.3
2018-May-20 18:23N 36°00' E 120°13'0 0.1
2018-May-20 17:54N 36°00' E 120°13'0 0.0
2018-May-20 17:27N 36°00' E 120°13'0 0.3
2018-May-20 16:58N 36°00' E 120°13'3 6.5
2018-May-20 16:27N 36°02' E 120°16'6 8.4
2018-May-20 15:45N 36°01' E 120°24'312.6
2018-May-20 15:30N 36°00' E 120°27'611.0
2018-May-20 15:00N 35°59' E 120°34'13412.9
2018-May-20 04:33N 37°20' E 122°48'217.5
2018-May-20 04:27N 37°22' E 122°48'1016.7
2018-May-20 03:51N 37°31' E 122°43'916.5
2018-May-20 03:18N 37°38' E 122°35'516.4
2018-May-20 03:01N 37°42' E 122°32'1816.4
2018-May-20 01:55N 37°57' E 122°20'3217.7
2018-May-20 00:06N 38°25' E 122°00'317.9
2018-May-19 23:55N 38°28' E 121°59'717.9
2018-May-19 23:31N 38°35' E 121°57'1218.1
2018-May-19 22:52N 38°47' E 121°57'4 0.2
2018-May-19 01:14N 38°49' E 121°53'514.4
2018-May-19 00:52N 38°44' E 121°50'513.4
2018-May-19 00:30N 38°40' E 121°47'714.7
2018-May-19 00:00N 38°34' E 121°42'714.5
2018-May-18 23:30N 38°31' E 121°33'815.1
2018-May-18 23:00N 38°30' E 121°24'2014.7
2018-May-18 21:38N 38°31' E 120°58'214.9
2018-May-18 21:30N 38°31' E 120°55'714.9
2018-May-18 21:00N 38°32' E 120°46'714.7
2018-May-18 20:30N 38°33' E 120°37'714.6
2018-May-18 20:00N 38°34' E 120°28'714.4
2018-May-18 19:30N 38°35' E 120°19'714.2
2018-May-18 19:00N 38°36' E 120°10'  
2018-May-15 00:10N 33°53' E 127°12'419.1
2018-May-14 23:57N 33°53' E 127°17'919.5
2018-May-14 23:30N 33°53' E 127°27'1019.3
2018-May-14 23:00N 33°54' E 127°39'1019.2
2018-May-14 22:30N 33°57' E 127°50'1019.2
2018-May-14 22:00N 33°60' E 128°01'1019.1
2018-May-14 21:30N 34°03' E 128°12'919.0
2018-May-14 21:00N 34°07' E 128°22'3518.9
2018-May-14 19:10N 34°32' E 128°52'1918.7
2018-May-14 18:08N 34°44' E 129°10'318.1
2018-May-14 17:57N 34°46' E 129°13'  
Track history (hours):
 
Tides and Currents Weather Stations Pressure Air Temp Water Temp Dewpoint Dewpoint Depression Visibility Wind Speed Wind Dir Waves Ship Positions

CSCL Autumn

Last reported at 2018-May-24 17:10 UTC. Time now 2018-May-26 03:54 UTC.
Position N 32°23' E 126°23'.

Length 335 m; draft 14.3 m.

Type: Ship (hazmat cat A). MMSI: 477117900.

Date/timePositionNaut miles runAvg speedWind from/ knotsBaromVisibWave heightAir tempDewpointWater temp
2018-May-24 17:10N 32°23' E 126°23'319.3
2018-May-24 17:01N 32°22' E 126°20'2819.5
2018-May-24 15:36N 32°07' E 125°52'219.4
2018-May-24 15:30N 32°06' E 125°50'1119.7
2018-May-24 14:58N 32°00' E 125°40'2919.7
2018-May-24 13:29N 31°45' E 125°10'9219.5
2018-May-24 08:45N 30°56' E 123°39'519.3
2018-May-24 08:30N 30°54' E 123°34'2618.8
2018-May-24 07:09N 30°40' E 123°09'318.5
2018-May-24 06:59N 30°39' E 123°06'1518.5
2018-May-24 06:09N 30°34' E 122°49'318.6
2018-May-24 06:00N 30°34' E 122°46'2318.8
2018-May-24 04:46N 30°33' E 122°19'510.1
2018-May-24 04:18N 30°33' E 122°13'8 0.5
2018-May-23 11:19N 30°36' E 122°05'2 3.9
2018-May-23 10:46N 30°35' E 122°07'714.4
2018-May-23 10:16N 30°33' E 122°15'915.1
2018-May-23 09:41N 30°32' E 122°25'314.9
2018-May-23 09:28N 30°32' E 122°29'716.2
2018-May-23 09:00N 30°31' E 122°38'34711.5
2018-May-22 02:47N 35°60' E 120°26'612.6
2018-May-22 02:17N 36°01' E 120°19'3 8.5
2018-May-22 01:56N 36°02' E 120°15'3 3.1
2018-May-22 01:05N 36°00' E 120°13'0 0.0
2018-May-22 00:47N 36°00' E 120°13'0 0.0
2018-May-22 00:20N 36°00' E 120°13'0 0.0
2018-May-21 23:44N 36°00' E 120°13'0 0.0
2018-May-21 23:29N 36°00' E 120°13'0 0.1
2018-May-21 22:50N 36°00' E 120°13'0 0.1
2018-May-21 22:14N 36°00' E 120°13'0 0.0
2018-May-21 21:56N 36°00' E 120°13'0 0.0
2018-May-21 21:05N 36°00' E 120°13'0 0.0
2018-May-21 20:44N 36°00' E 120°13'0 0.0
2018-May-21 19:53N 36°00' E 120°13'0 0.0
2018-May-21 19:29N 36°00' E 120°13'0 0.0
2018-May-21 18:53N 36°00' E 120°13'0 0.0
2018-May-21 18:20N 36°00' E 120°13'0 0.0
2018-May-21 17:54N 36°00' E 120°13'0 0.0
2018-May-21 17:26N 36°00' E 120°13'0 0.0
2018-May-21 16:53N 36°00' E 120°13'0 0.0
2018-May-21 16:26N 36°00' E 120°13'0 0.0
2018-May-21 15:38N 36°00' E 120°13'0 0.1
2018-May-21 15:12N 36°00' E 120°13'0 0.0
2018-May-21 14:53N 36°00' E 120°13'0 0.0
2018-May-21 14:29N 36°00' E 120°13'0 0.0
2018-May-21 13:57N 36°00' E 120°13'0 0.1
2018-May-21 13:20N 36°00' E 120°13'0 0.1
2018-May-21 12:44N 36°00' E 120°13'0 0.0
2018-May-21 12:27N 36°00' E 120°13'0 0.0
2018-May-21 11:14N 36°00' E 120°13'0 0.0
2018-May-21 10:56N 36°00' E 120°13'0 0.0
2018-May-21 09:59N 36°00' E 120°13'0 0.0
2018-May-21 07:49N 36°00' E 120°13'0 0.0
2018-May-21 06:47N 36°00' E 120°13'0 0.0
2018-May-21 06:29N 36°00' E 120°13'0 0.0
2018-May-21 05:52N 36°00' E 120°13'0 0.1
2018-May-21 05:16N 36°00' E 120°13'0 0.0
2018-May-21 04:52N 36°00' E 120°13'0 0.1
2018-May-21 04:04N 36°00' E 120°13'0 0.1
2018-May-21 03:43N 36°00' E 120°13'0 0.1
2018-May-21 03:26N 36°00' E 120°13'0 0.0
2018-May-21 02:01N 36°00' E 120°13'0 0.0
2018-May-21 01:46N 36°00' E 120°13'0 0.0
2018-May-21 01:25N 36°00' E 120°13'0 0.0
2018-May-21 00:43N 36°00' E 120°13'0 0.0
2018-May-21 00:25N 36°00' E 120°13'0 0.0
2018-May-20 23:08N 36°00' E 120°13'0 0.0
2018-May-20 22:46N 36°00' E 120°13'0 0.1
2018-May-20 22:23N 36°00' E 120°13'0 0.0
2018-May-20 21:46N 36°00' E 120°13'0 0.1
2018-May-20 21:16N 36°00' E 120°13'0 0.0
2018-May-20 20:59N 36°00' E 120°13'0 0.0
2018-May-20 19:17N 36°00' E 120°13'0 0.1
2018-May-20 18:32N 36°00' E 120°13'0 0.3
2018-May-20 18:23N 36°00' E 120°13'0 0.1
2018-May-20 17:54N 36°00' E 120°13'0 0.0
2018-May-20 17:27N 36°00' E 120°13'0 0.3
2018-May-20 16:58N 36°00' E 120°13'3 6.5
2018-May-20 16:27N 36°02' E 120°16'6 8.4
2018-May-20 15:45N 36°01' E 120°24'312.6
2018-May-20 15:30N 36°00' E 120°27'611.0
2018-May-20 15:00N 35°59' E 120°34'13412.9
2018-May-20 04:33N 37°20' E 122°48'217.5
2018-May-20 04:27N 37°22' E 122°48'1016.7
2018-May-20 03:51N 37°31' E 122°43'916.5
2018-May-20 03:18N 37°38' E 122°35'516.4
2018-May-20 03:01N 37°42' E 122°32'1816.4
2018-May-20 01:55N 37°57' E 122°20'3217.7
2018-May-20 00:06N 38°25' E 122°00'317.9
2018-May-19 23:55N 38°28' E 121°59'717.9
2018-May-19 23:31N 38°35' E 121°57'1218.1
2018-May-19 22:52N 38°47' E 121°57'4 0.2
2018-May-19 01:14N 38°49' E 121°53'514.4
2018-May-19 00:52N 38°44' E 121°50'513.4
2018-May-19 00:30N 38°40' E 121°47'714.7
2018-May-19 00:00N 38°34' E 121°42'714.5
2018-May-18 23:30N 38°31' E 121°33'815.1
2018-May-18 23:00N 38°30' E 121°24'2014.7
2018-May-18 21:38N 38°31' E 120°58'214.9
2018-May-18 21:30N 38°31' E 120°55'714.9
2018-May-18 21:00N 38°32' E 120°46'714.7
2018-May-18 20:30N 38°33' E 120°37'714.6
2018-May-18 20:00N 38°34' E 120°28'714.4
2018-May-18 19:30N 38°35' E 120°19'714.2
2018-May-18 19:00N 38°36' E 120°10'  
2018-May-15 00:10N 33°53' E 127°12'419.1
2018-May-14 23:57N 33°53' E 127°17'919.5
2018-May-14 23:30N 33°53' E 127°27'1019.3
2018-May-14 23:00N 33°54' E 127°39'1019.2
2018-May-14 22:30N 33°57' E 127°50'1019.2
2018-May-14 22:00N 33°60' E 128°01'1019.1
2018-May-14 21:30N 34°03' E 128°12'919.0
2018-May-14 21:00N 34°07' E 128°22'3518.9
2018-May-14 19:10N 34°32' E 128°52'1918.7
2018-May-14 18:08N 34°44' E 129°10'318.1
2018-May-14 17:57N 34°46' E 129°13'  

Dump ship's entire track history